x

Ilm3 - 27 Miles Se Of Wrightsville Beach, Nc (41037) Weather Station

11:00pm - Wed 30th Jul 2014 All times are EDT. -4 hours from GMT.

  • Wind
    11mph, 16mph gusts
  • Sea Temp 82°f
  • Air Temp 77°f
  • Sea Pressure 1017.5mb
  • Ilm3 - 27 Miles Se Of Wrightsville Beach, Nc
  • Ilm3 - 27 Miles Se Of Wrightsville Beach, Nc

More Historic Weather Station data

Upgrade to MSW Pro to gain access to the past 30 days of data for over 8000 Wavebouys and Weather Stations around the globe.

Join Pro

Comparision Forecast

View Surf forecast
   
Wed 07/30 11:00pm 11 16 mph 1017.5mb 82f 77f
10:00pm 13 16 mph 1017.4mb 82f 77f
9:00pm 13 18 mph 1016.9mb 82f 77f
8:00pm 18 20 mph 1016.5mb 82f 76f
7:00pm 18 22 mph 1015.9mb 82f 76f
6:00pm 16 20 mph 1016.1mb 82f 77f
5:00pm 16 18 mph 1016.2mb 82f 76f
4:00pm 16 18 mph 1017mb 82f 77f
3:00pm 16 18 mph 1017mb 82f 76f
2:00pm 16 18 mph 1017.3mb 82f 76f
1:00pm 16 18 mph 1017.1mb 82f 76f
12:00pm 16 20 mph 1017.4mb 82f 76f
11:00am 16 18 mph 1017mb 82f 76f
10:00am 13 18 mph 1016.4mb 82f 76f
9:00am 13 16 mph 1016.3mb 82f 76f
8:00am 11 16 mph 1015.8mb 82f 76f
7:00am 13 16 mph 1015.5mb 82f 76f
6:00am 13 16 mph 1014.8mb 82f 76f
5:00am 11 16 mph 1014.2mb 82f 76f
4:00am 16 18 mph 1014mb 82f 76f
3:00am 13 16 mph 1013.9mb 82f 76f
2:00am 16 18 mph 1014.2mb 82f 75f
1:00am 18 20 mph 1014.4mb 82f 74f
12:00am 18 22 mph 1015mb 82f 73f
Tue 07/29 11:00pm 16 18 mph 1014.6mb 82f 74f
10:00pm 11 13 mph 1014.3mb 82f 76f
9:00pm 9
mph
1013.5mb 82f 76f
8:00pm 9
mph
1012.8mb 82f 76f
7:00pm 11
mph
1012.4mb 82f 77f
6:00pm 11 13 mph 1012.5mb 82f 77f
5:00pm 11 13 mph 1012.6mb 82f 77f
4:00pm 11 13 mph 1012.6mb 82f 76f
3:00pm 13 16 mph 1012.3mb 82f 76f
2:00pm 13
mph
1012.4mb 82f 76f
1:00pm 16 18 mph 1012.8mb 82f 76f
12:00pm 13 16 mph 1012.5mb 82f 75f
11:00am 16 18 mph 1012.1mb 82f 75f
10:00am 16 18 mph 1011.6mb 82f 74f
9:00am 18 22 mph 1011.3mb 82f 75f
8:00am 18 20 mph 1011.2mb 82f 75f
7:00am 18 22 mph 1010.9mb 82f 76f
6:00am 22 27 mph 1010.3mb 82f 76f
5:00am 20 25 mph 1009.9mb 82f 77f
3:00am 11 13 mph 1009.4mb 82f 77f
2:00am 9 11 mph 1009.4mb 82f 77f
1:00am 13 16 mph 1008.8mb 82f 77f
12:00am 11 13 mph 1009.6mb 82f 77f
Mon 07/28 11:00pm 16 20 mph 1009.3mb 82f 77f
10:00pm 16 18 mph 1010.2mb 82f 76f
9:00pm 4 7 mph 1009.3mb 82f 75f
8:00pm  -  mph 1009.8mb 82f 73f
7:00pm 49 56 mph 1006.5mb 82f 69f
6:00pm 18 20 mph 1008.3mb 82f 77f
5:00pm 16 20 mph 1008.1mb 82f 79f
4:00pm 18 20 mph 1008.3mb 82f 80f
1:00pm 18 22 mph 1009.8mb 82f 80f
12:00pm 18 22 mph 1009.9mb 82f 80f
11:00am 18 20 mph 1010.1mb 82f 80f
10:00am 16 18 mph 1009.5mb 82f 80f
9:00am 18 20 mph 1009.3mb 82f 80f
8:00am 16 20 mph 1009.5mb 82f 80f
7:00am 18 20 mph 1009.5mb 82f 80f
6:00am 22 27 mph 1009.4mb 82f 80f
5:00am 25 29 mph 1008.5mb 82f 79f
4:00am 27 31 mph 1008.5mb 82f 80f
3:00am 22 29 mph 1008.9mb 82f 80f
2:00am 25 29 mph 1009.2mb 82f 80f
1:00am 22 25 mph 1010.3mb 82f 80f
12:00am 22 25 mph 1010.6mb 82f 79f
Sun 07/27 11:00pm 22 27 mph 1011mb 82f 79f
10:00pm 27 29 mph 1010.7mb 82f 79f
9:00pm 25 29 mph 1010.7mb 82f 79f
8:00pm 20 25 mph 1011.4mb 82f 79f
7:00pm 18 22 mph 1011.6mb 82f 80f
6:00pm 16
mph
1011.6mb 82f 80f
5:00pm 13 16 mph 1012.1mb 82f 80f
4:00pm 16 18 mph 1012.5mb 82f 80f
3:00pm 16 20 mph 1013mb 82f 80f
2:00pm 13
mph
1013.5mb 82f 80f
1:00pm 13 16 mph 1014.4mb 82f 80f
12:00pm 16 20 mph 1014.4mb 82f 80f
11:00am 13 16 mph 1014mb 82f 79f
10:00am 13 18 mph 1014.5mb 81f 79f
9:00am 11 13 mph 1014.6mb 81f 79f
8:00am 11 13 mph 1014.5mb 81f 79f
7:00am 11 13 mph 1014.1mb 81f 78f
6:00am 13 16 mph 1013.8mb 81f 78f
5:00am 13 16 mph 1014mb 81f 78f